sensor_id;sensor_type;location;lat;lon;timestamp;temperature;humidity
65207;SHT31;58477;48.072;11.970;2022-12-18T00:01:03;-6.20;95.79
65207;SHT31;58477;48.072;11.970;2022-12-18T00:03:33;-6.20;96.14
65207;SHT31;58477;48.072;11.970;2022-12-18T00:05:58;-6.13;95.87
65207;SHT31;58477;48.072;11.970;2022-12-18T00:08:24;-6.21;96.51
65207;SHT31;58477;48.072;11.970;2022-12-18T00:10:49;-6.21;96.56
65207;SHT31;58477;48.072;11.970;2022-12-18T00:13:15;-6.03;96.79
65207;SHT31;58477;48.072;11.970;2022-12-18T00:15:40;-6.21;96.28
65207;SHT31;58477;48.072;11.970;2022-12-18T00:18:06;-6.06;96.74
65207;SHT31;58477;48.072;11.970;2022-12-18T00:20:35;-6.14;96.35
65207;SHT31;58477;48.072;11.970;2022-12-18T00:23:01;-6.06;96.48
65207;SHT31;58477;48.072;11.970;2022-12-18T00:25:27;-5.96;96.68
65207;SHT31;58477;48.072;11.970;2022-12-18T00:27:52;-6.05;96.26
65207;SHT31;58477;48.072;11.970;2022-12-18T00:30:18;-6.16;96.54
65207;SHT31;58477;48.072;11.970;2022-12-18T00:32:43;-6.03;96.96
65207;SHT31;58477;48.072;11.970;2022-12-18T00:35:09;-5.97;96.41
65207;SHT31;58477;48.072;11.970;2022-12-18T00:37:34;-6.07;96.94
65207;SHT31;58477;48.072;11.970;2022-12-18T00:40:00;-5.99;96.71
65207;SHT31;58477;48.072;11.970;2022-12-18T00:42:27;-5.75;96.66
65207;SHT31;58477;48.072;11.970;2022-12-18T00:45:27;-5.85;96.13
65207;SHT31;58477;48.072;11.970;2022-12-18T00:47:53;-5.73;96.50
65207;SHT31;58477;48.072;11.970;2022-12-18T00:50:19;-5.87;96.66
65207;SHT31;58477;48.072;11.970;2022-12-18T00:52:45;-5.78;96.41
65207;SHT31;58477;48.072;11.970;2022-12-18T00:55:11;-5.85;96.01
65207;SHT31;58477;48.072;11.970;2022-12-18T00:57:36;-5.85;96.12
65207;SHT31;58477;48.072;11.970;2022-12-18T01:00:04;-5.81;96.29
65207;SHT31;58477;48.072;11.970;2022-12-18T01:02:30;-5.85;96.53
65207;SHT31;58477;48.072;11.970;2022-12-18T01:04:56;-5.78;96.17
65207;SHT31;58477;48.072;11.970;2022-12-18T01:07:21;-5.82;96.39
65207;SHT31;58477;48.072;11.970;2022-12-18T01:09:47;-5.82;96.38
65207;SHT31;58477;48.072;11.970;2022-12-18T01:12:12;-5.85;96.35
65207;SHT31;58477;48.072;11.970;2022-12-18T01:14:38;-5.86;96.28
65207;SHT31;58477;48.072;11.970;2022-12-18T01:17:04;-5.78;96.22
65207;SHT31;58477;48.072;11.970;2022-12-18T01:19:32;-5.87;95.85
65207;SHT31;58477;48.072;11.970;2022-12-18T01:21:57;-5.90;96.53
65207;SHT31;58477;48.072;11.970;2022-12-18T01:24:23;-5.92;96.43
65207;SHT31;58477;48.072;11.970;2022-12-18T01:26:49;-5.97;96.62
65207;SHT31;58477;48.072;11.970;2022-12-18T01:29:14;-5.81;96.46
65207;SHT31;58477;48.072;11.970;2022-12-18T01:31:39;-5.72;96.10
65207;SHT31;58477;48.072;11.970;2022-12-18T01:34:05;-5.81;95.89
65207;SHT31;58477;48.072;11.970;2022-12-18T01:36:35;-5.79;95.83
65207;SHT31;58477;48.072;11.970;2022-12-18T01:39:08;-5.76;95.91
65207;SHT31;58477;48.072;11.970;2022-12-18T01:41:35;-5.71;96.31
65207;SHT31;58477;48.072;11.970;2022-12-18T01:44:53;-5.73;95.86
65207;SHT31;58477;48.072;11.970;2022-12-18T01:49:46;-5.69;96.02
65207;SHT31;58477;48.072;11.970;2022-12-18T01:52:11;-5.95;95.80
65207;SHT31;58477;48.072;11.970;2022-12-18T01:54:37;-5.85;95.85
65207;SHT31;58477;48.072;11.970;2022-12-18T01:57:03;-5.87;96.03
65207;SHT31;58477;48.072;11.970;2022-12-18T01:59:30;-6.03;96.52
65207;SHT31;58477;48.072;11.970;2022-12-18T02:01:56;-5.96;96.51
65207;SHT31;58477;48.072;11.970;2022-12-18T02:04:25;-5.90;96.35
65207;SHT31;58477;48.072;11.970;2022-12-18T02:06:58;-5.93;96.79
65207;SHT31;58477;48.072;11.970;2022-12-18T02:09:37;-5.97;96.65
65207;SHT31;58477;48.072;11.970;2022-12-18T02:12:18;-6.02;96.42
65207;SHT31;58477;48.072;11.970;2022-12-18T02:15:04;-6.00;96.32
65207;SHT31;58477;48.072;11.970;2022-12-18T02:17:37;-6.00;96.26
65207;SHT31;58477;48.072;11.970;2022-12-18T02:25:56;-5.81;96.29
65207;SHT31;58477;48.072;11.970;2022-12-18T02:28:31;-5.68;96.16
65207;SHT31;58477;48.072;11.970;2022-12-18T02:31:04;-5.75;95.77
65207;SHT31;58477;48.072;11.970;2022-12-18T02:33:33;-5.83;95.68
65207;SHT31;58477;48.072;11.970;2022-12-18T02:36:00;-5.89;95.65
65207;SHT31;58477;48.072;11.970;2022-12-18T02:38:28;-5.97;96.09
65207;SHT31;58477;48.072;11.970;2022-12-18T02:40:58;-5.81;95.82
65207;SHT31;58477;48.072;11.970;2022-12-18T02:43:26;-5.96;95.63
65207;SHT31;58477;48.072;11.970;2022-12-18T02:45:58;-5.71;96.25
65207;SHT31;58477;48.072;11.970;2022-12-18T02:48:32;-5.68;95.75
65207;SHT31;58477;48.072;11.970;2022-12-18T02:51:29;-5.76;95.19
65207;SHT31;58477;48.072;11.970;2022-12-18T02:54:08;-5.65;95.55
65207;SHT31;58477;48.072;11.970;2022-12-18T02:56:44;-5.68;95.50
65207;SHT31;58477;48.072;11.970;2022-12-18T02:59:19;-5.76;95.41
65207;SHT31;58477;48.072;11.970;2022-12-18T03:02:00;-5.81;95.73
65207;SHT31;58477;48.072;11.970;2022-12-18T03:04:44;-6.03;95.71
65207;SHT31;58477;48.072;11.970;2022-12-18T03:07:19;-5.87;95.58
65207;SHT31;58477;48.072;11.970;2022-12-18T03:09:50;-5.82;95.88
65207;SHT31;58477;48.072;11.970;2022-12-18T03:12:20;-5.79;95.86
65207;SHT31;58477;48.072;11.970;2022-12-18T03:14:52;-5.68;95.81
65207;SHT31;58477;48.072;11.970;2022-12-18T03:17:23;-5.59;95.25
65207;SHT31;58477;48.072;11.970;2022-12-18T03:19:51;-5.79;94.69
65207;SHT31;58477;48.072;11.970;2022-12-18T03:22:18;-5.73;95.54
65207;SHT31;58477;48.072;11.970;2022-12-18T03:24:48;-5.63;95.43
65207;SHT31;58477;48.072;11.970;2022-12-18T03:27:17;-5.63;94.81
65207;SHT31;58477;48.072;11.970;2022-12-18T03:29:56;-5.66;95.10
65207;SHT31;58477;48.072;11.970;2022-12-18T03:32:35;-5.68;95.25
65207;SHT31;58477;48.072;11.970;2022-12-18T03:35:05;-5.79;95.54
65207;SHT31;58477;48.072;11.970;2022-12-18T03:37:34;-5.90;95.51
65207;SHT31;58477;48.072;11.970;2022-12-18T03:40:00;-5.75;96.19
65207;SHT31;58477;48.072;11.970;2022-12-18T03:42:46;-5.71;95.79
65207;SHT31;58477;48.072;11.970;2022-12-18T03:48:02;-5.65;95.46
65207;SHT31;58477;48.072;11.970;2022-12-18T03:50:49;-5.73;95.67
65207;SHT31;58477;48.072;11.970;2022-12-18T03:55:47;-5.69;95.86
65207;SHT31;58477;48.072;11.970;2022-12-18T03:58:19;-5.66;95.45
65207;SHT31;58477;48.072;11.970;2022-12-18T04:01:06;-5.68;95.47
65207;SHT31;58477;48.072;11.970;2022-12-18T04:03:34;-5.55;95.71
65207;SHT31;58477;48.072;11.970;2022-12-18T04:06:02;-5.89;95.07
65207;SHT31;58477;48.072;11.970;2022-12-18T04:08:28;-5.99;95.72
65207;SHT31;58477;48.072;11.970;2022-12-18T04:11:04;-5.95;96.07
65207;SHT31;58477;48.072;11.970;2022-12-18T04:13:36;-5.81;96.00
65207;SHT31;58477;48.072;11.970;2022-12-18T04:16:06;-5.85;95.90
65207;SHT31;58477;48.072;11.970;2022-12-18T04:18:32;-5.83;95.54
65207;SHT31;58477;48.072;11.970;2022-12-18T04:20:59;-5.90;95.49
65207;SHT31;58477;48.072;11.970;2022-12-18T04:23:25;-5.79;95.74
65207;SHT31;58477;48.072;11.970;2022-12-18T04:25:54;-6.02;95.51
65207;SHT31;58477;48.072;11.970;2022-12-18T04:28:35;-5.85;95.83
65207;SHT31;58477;48.072;11.970;2022-12-18T04:31:00;-5.83;95.55
65207;SHT31;58477;48.072;11.970;2022-12-18T04:33:26;-5.86;95.86
65207;SHT31;58477;48.072;11.970;2022-12-18T04:35:52;-5.90;95.70
65207;SHT31;58477;48.072;11.970;2022-12-18T04:38:17;-5.82;95.48
65207;SHT31;58477;48.072;11.970;2022-12-18T04:40:44;-6.02;95.41
65207;SHT31;58477;48.072;11.970;2022-12-18T04:43:18;-6.09;95.47
65207;SHT31;58477;48.072;11.970;2022-12-18T04:45:44;-6.13;95.89
65207;SHT31;58477;48.072;11.970;2022-12-18T04:48:09;-6.06;95.86
65207;SHT31;58477;48.072;11.970;2022-12-18T04:50:35;-5.89;95.90
65207;SHT31;58477;48.072;11.970;2022-12-18T04:53:00;-6.05;95.78
65207;SHT31;58477;48.072;11.970;2022-12-18T04:55:26;-5.85;96.06
65207;SHT31;58477;48.072;11.970;2022-12-18T04:57:52;-5.93;95.24
65207;SHT31;58477;48.072;11.970;2022-12-18T05:00:18;-5.76;95.30
65207;SHT31;58477;48.072;11.970;2022-12-18T05:02:43;-5.75;94.98
65207;SHT31;58477;48.072;11.970;2022-12-18T05:05:09;-6.13;95.21
65207;SHT31;58477;48.072;11.970;2022-12-18T05:07:34;-6.13;95.50
65207;SHT31;58477;48.072;11.970;2022-12-18T05:10:00;-5.96;95.61
65207;SHT31;58477;48.072;11.970;2022-12-18T05:12:25;-5.82;95.22
65207;SHT31;58477;48.072;11.970;2022-12-18T05:14:51;-6.07;95.28
65207;SHT31;58477;48.072;11.970;2022-12-18T05:17:17;-6.00;95.56
65207;SHT31;58477;48.072;11.970;2022-12-18T05:19:42;-5.97;95.19
65207;SHT31;58477;48.072;11.970;2022-12-18T05:22:08;-6.00;95.17
65207;SHT31;58477;48.072;11.970;2022-12-18T05:24:34;-5.92;94.99
65207;SHT31;58477;48.072;11.970;2022-12-18T05:26:59;-6.06;94.91
65207;SHT31;58477;48.072;11.970;2022-12-18T05:29:25;-6.05;95.26
65207;SHT31;58477;48.072;11.970;2022-12-18T05:31:50;-6.23;95.31
65207;SHT31;58477;48.072;11.970;2022-12-18T05:34:16;-6.21;95.44
65207;SHT31;58477;48.072;11.970;2022-12-18T05:36:42;-6.30;95.61
65207;SHT31;58477;48.072;11.970;2022-12-18T05:39:07;-6.30;95.76
65207;SHT31;58477;48.072;11.970;2022-12-18T05:41:33;-6.31;95.74
65207;SHT31;58477;48.072;11.970;2022-12-18T05:43:58;-6.40;95.96
65207;SHT31;58477;48.072;11.970;2022-12-18T05:46:24;-6.31;95.86
65207;SHT31;58477;48.072;11.970;2022-12-18T05:48:50;-6.30;95.88
65207;SHT31;58477;48.072;11.970;2022-12-18T05:51:18;-6.33;95.68
65207;SHT31;58477;48.072;11.970;2022-12-18T05:53:44;-6.47;95.48
65207;SHT31;58477;48.072;11.970;2022-12-18T05:56:13;-6.61;96.21
65207;SHT31;58477;48.072;11.970;2022-12-18T05:58:38;-6.65;95.97
65207;SHT31;58477;48.072;11.970;2022-12-18T06:01:16;-6.60;96.12
65207;SHT31;58477;48.072;11.970;2022-12-18T06:03:42;-6.54;95.80
65207;SHT31;58477;48.072;11.970;2022-12-18T06:06:19;-6.45;95.97
65207;SHT31;58477;48.072;11.970;2022-12-18T06:08:45;-6.41;95.55
65207;SHT31;58477;48.072;11.970;2022-12-18T06:11:10;-6.47;95.10
65207;SHT31;58477;48.072;11.970;2022-12-18T06:13:36;-6.48;95.54
65207;SHT31;58477;48.072;11.970;2022-12-18T06:16:04;-6.62;95.56
65207;SHT31;58477;48.072;11.970;2022-12-18T06:18:30;-6.72;95.84
65207;SHT31;58477;48.072;11.970;2022-12-18T06:20:56;-6.81;96.26
65207;SHT31;58477;48.072;11.970;2022-12-18T06:23:22;-6.77;96.26
65207;SHT31;58477;48.072;11.970;2022-12-18T06:25:48;-6.68;96.38
65207;SHT31;58477;48.072;11.970;2022-12-18T06:28:13;-6.41;96.40
65207;SHT31;58477;48.072;11.970;2022-12-18T06:30:39;-6.28;95.48
65207;SHT31;58477;48.072;11.970;2022-12-18T06:33:04;-6.44;95.27
65207;SHT31;58477;48.072;11.970;2022-12-18T06:35:31;-6.42;95.32
65207;SHT31;58477;48.072;11.970;2022-12-18T06:37:57;-6.60;94.96
65207;SHT31;58477;48.072;11.970;2022-12-18T06:40:22;-6.58;95.24
65207;SHT31;58477;48.072;11.970;2022-12-18T06:42:48;-6.65;95.36
65207;SHT31;58477;48.072;11.970;2022-12-18T06:45:13;-6.80;95.50
65207;SHT31;58477;48.072;11.970;2022-12-18T06:47:39;-6.68;95.84
65207;SHT31;58477;48.072;11.970;2022-12-18T06:50:05;-6.65;95.27
65207;SHT31;58477;48.072;11.970;2022-12-18T06:52:32;-6.71;95.36
65207;SHT31;58477;48.072;11.970;2022-12-18T06:54:57;-6.84;95.32
65207;SHT31;58477;48.072;11.970;2022-12-18T06:57:23;-6.84;95.62
65207;SHT31;58477;48.072;11.970;2022-12-18T06:59:48;-6.57;95.86
65207;SHT31;58477;48.072;11.970;2022-12-18T07:02:14;-6.64;95.55
65207;SHT31;58477;48.072;11.970;2022-12-18T07:04:39;-6.58;95.40
65207;SHT31;58477;48.072;11.970;2022-12-18T07:07:05;-6.65;95.19
65207;SHT31;58477;48.072;11.970;2022-12-18T07:09:30;-6.64;95.27
65207;SHT31;58477;48.072;11.970;2022-12-18T07:11:56;-6.72;95.82
65207;SHT31;58477;48.072;11.970;2022-12-18T07:14:21;-6.65;95.46
65207;SHT31;58477;48.072;11.970;2022-12-18T07:16:47;-6.61;95.26
65207;SHT31;58477;48.072;11.970;2022-12-18T07:19:12;-6.52;95.24
65207;SHT31;58477;48.072;11.970;2022-12-18T07:21:38;-6.60;94.74
65207;SHT31;58477;48.072;11.970;2022-12-18T07:24:03;-6.68;95.28
65207;SHT31;58477;48.072;11.970;2022-12-18T07:26:29;-6.62;95.19
65207;SHT31;58477;48.072;11.970;2022-12-18T07:28:55;-6.72;95.26
65207;SHT31;58477;48.072;11.970;2022-12-18T07:31:23;-6.62;95.54
65207;SHT31;58477;48.072;11.970;2022-12-18T07:33:50;-6.64;95.04
65207;SHT31;58477;48.072;11.970;2022-12-18T07:36:16;-6.68;94.69
65207;SHT31;58477;48.072;11.970;2022-12-18T07:38:41;-6.85;95.16
65207;SHT31;58477;48.072;11.970;2022-12-18T07:41:10;-6.81;95.00
65207;SHT31;58477;48.072;11.970;2022-12-18T07:43:36;-6.64;95.21
65207;SHT31;58477;48.072;11.970;2022-12-18T07:46:01;-6.89;94.81
65207;SHT31;58477;48.072;11.970;2022-12-18T07:48:28;-6.87;94.92
65207;SHT31;58477;48.072;11.970;2022-12-18T07:50:57;-6.75;95.30
65207;SHT31;58477;48.072;11.970;2022-12-18T07:53:22;-6.58;94.72
65207;SHT31;58477;48.072;11.970;2022-12-18T07:55:48;-6.72;95.02
65207;SHT31;58477;48.072;11.970;2022-12-18T07:58:13;-6.62;94.89
65207;SHT31;58477;48.072;11.970;2022-12-18T08:00:39;-7.04;94.55
65207;SHT31;58477;48.072;11.970;2022-12-18T08:03:04;-6.99;94.81
65207;SHT31;58477;48.072;11.970;2022-12-18T08:05:30;-7.01;94.76
65207;SHT31;58477;48.072;11.970;2022-12-18T08:07:55;-6.91;94.64
65207;SHT31;58477;48.072;11.970;2022-12-18T08:10:21;-6.98;94.34
65207;SHT31;58477;48.072;11.970;2022-12-18T08:12:50;-6.88;93.99
65207;SHT31;58477;48.072;11.970;2022-12-18T08:15:16;-6.80;94.39
65207;SHT31;58477;48.072;11.970;2022-12-18T08:17:42;-7.01;93.53
65207;SHT31;58477;48.072;11.970;2022-12-18T08:20:08;-7.06;94.54
65207;SHT31;58477;48.072;11.970;2022-12-18T08:22:34;-7.02;95.28
65207;SHT31;58477;48.072;11.970;2022-12-18T08:25:01;-7.13;94.42
65207;SHT31;58477;48.072;11.970;2022-12-18T08:27:26;-7.02;94.84
65207;SHT31;58477;48.072;11.970;2022-12-18T08:29:52;-6.87;94.49
65207;SHT31;58477;48.072;11.970;2022-12-18T08:32:17;-6.99;93.91
65207;SHT31;58477;48.072;11.970;2022-12-18T08:34:43;-6.77;94.23
65207;SHT31;58477;48.072;11.970;2022-12-18T08:37:08;-6.54;94.10
65207;SHT31;58477;48.072;11.970;2022-12-18T08:39:33;-6.50;93.55
65207;SHT31;58477;48.072;11.970;2022-12-18T08:41:59;-6.45;93.48
65207;SHT31;58477;48.072;11.970;2022-12-18T08:44:43;-6.50;93.29
65207;SHT31;58477;48.072;11.970;2022-12-18T08:47:09;-6.42;92.59
65207;SHT31;58477;48.072;11.970;2022-12-18T08:49:34;-6.36;92.48
65207;SHT31;58477;48.072;11.970;2022-12-18T08:52:00;-6.51;93.12
65207;SHT31;58477;48.072;11.970;2022-12-18T08:54:28;-6.47;92.39
65207;SHT31;58477;48.072;11.970;2022-12-18T08:56:53;-6.52;93.25
65207;SHT31;58477;48.072;11.970;2022-12-18T08:59:19;-6.21;92.89
65207;SHT31;58477;48.072;11.970;2022-12-18T09:01:45;-6.09;92.36
65207;SHT31;58477;48.072;11.970;2022-12-18T09:04:11;-6.17;91.55
65207;SHT31;58477;48.072;11.970;2022-12-18T09:06:37;-6.14;91.20
65207;SHT31;58477;48.072;11.970;2022-12-18T09:09:04;-6.02;92.53
65207;SHT31;58477;48.072;11.970;2022-12-18T09:11:30;-6.14;91.99
65207;SHT31;58477;48.072;11.970;2022-12-18T09:13:57;-6.20;92.65
65207;SHT31;58477;48.072;11.970;2022-12-18T09:16:24;-5.90;91.45
65207;SHT31;58477;48.072;11.970;2022-12-18T09:18:50;-6.24;91.35
65207;SHT31;58477;48.072;11.970;2022-12-18T09:21:18;-6.05;92.44
65207;SHT31;58477;48.072;11.970;2022-12-18T09:23:44;-6.07;91.13
65207;SHT31;58477;48.072;11.970;2022-12-18T09:26:09;-5.82;90.99
65207;SHT31;58477;48.072;11.970;2022-12-18T09:28:35;-5.65;91.30
65207;SHT31;58477;48.072;11.970;2022-12-18T09:31:07;-5.55;90.71
65207;SHT31;58477;48.072;11.970;2022-12-18T09:33:36;-5.83;91.33
65207;SHT31;58477;48.072;11.970;2022-12-18T09:36:04;-5.79;92.47
65207;SHT31;58477;48.072;11.970;2022-12-18T09:38:30;-5.86;91.78
65207;SHT31;58477;48.072;11.970;2022-12-18T09:41:04;-5.69;92.72
65207;SHT31;58477;48.072;11.970;2022-12-18T09:43:36;-5.43;91.72
65207;SHT31;58477;48.072;11.970;2022-12-18T09:46:08;-5.51;91.26
65207;SHT31;58477;48.072;11.970;2022-12-18T09:48:38;-5.66;90.15
65207;SHT31;58477;48.072;11.970;2022-12-18T09:51:12;-5.35;91.71
65207;SHT31;58477;48.072;11.970;2022-12-18T09:53:41;-5.18;90.93
65207;SHT31;58477;48.072;11.970;2022-12-18T09:56:15;-5.47;90.95
65207;SHT31;58477;48.072;11.970;2022-12-18T09:58:56;-5.21;90.13
65207;SHT31;58477;48.072;11.970;2022-12-18T10:01:23;-5.31;90.88
65207;SHT31;58477;48.072;11.970;2022-12-18T10:03:50;-5.22;90.76
65207;SHT31;58477;48.072;11.970;2022-12-18T10:06:21;-5.35;90.80
65207;SHT31;58477;48.072;11.970;2022-12-18T10:11:40;-5.36;89.79
65207;SHT31;58477;48.072;11.970;2022-12-18T10:14:14;-5.00;90.69
65207;SHT31;58477;48.072;11.970;2022-12-18T10:17:07;-5.05;89.79
65207;SHT31;58477;48.072;11.970;2022-12-18T10:27:47;-5.17;89.83
65207;SHT31;58477;48.072;11.970;2022-12-18T10:30:16;-5.30;90.40
65207;SHT31;58477;48.072;11.970;2022-12-18T10:32:42;-5.15;90.29
65207;SHT31;58477;48.072;11.970;2022-12-18T10:35:24;-5.10;89.71
65207;SHT31;58477;48.072;11.970;2022-12-18T10:43:28;-4.49;88.36
65207;SHT31;58477;48.072;11.970;2022-12-18T10:51:33;-4.30;88.43
65207;SHT31;58477;48.072;11.970;2022-12-18T10:54:17;-3.89;86.64
65207;SHT31;58477;48.072;11.970;2022-12-18T10:56:43;-4.02;86.82
65207;SHT31;58477;48.072;11.970;2022-12-18T10:59:11;-3.81;85.73
65207;SHT31;58477;48.072;11.970;2022-12-18T11:01:51;-4.01;86.67
65207;SHT31;58477;48.072;11.970;2022-12-18T11:04:25;-4.37;87.61
65207;SHT31;58477;48.072;11.970;2022-12-18T11:07:01;-4.96;89.25
65207;SHT31;58477;48.072;11.970;2022-12-18T11:09:32;-4.81;88.81
65207;SHT31;58477;48.072;11.970;2022-12-18T11:12:00;-5.07;89.68
65207;SHT31;58477;48.072;11.970;2022-12-18T11:14:41;-4.96;89.89
65207;SHT31;58477;48.072;11.970;2022-12-18T11:19:54;-4.72;90.62
65207;SHT31;58477;48.072;11.970;2022-12-18T11:24:58;-4.79;91.52
65207;SHT31;58477;48.072;11.970;2022-12-18T11:27:24;-4.54;89.98
65207;SHT31;58477;48.072;11.970;2022-12-18T11:29:50;-4.26;88.04
65207;SHT31;58477;48.072;11.970;2022-12-18T11:32:33;-4.12;87.82
65207;SHT31;58477;48.072;11.970;2022-12-18T11:38:06;-4.30;88.65
65207;SHT31;58477;48.072;11.970;2022-12-18T11:40:38;-3.92;87.35
65207;SHT31;58477;48.072;11.970;2022-12-18T11:46:12;-4.67;89.73
65207;SHT31;58477;48.072;11.970;2022-12-18T11:48:44;-4.87;90.26
65207;SHT31;58477;48.072;11.970;2022-12-18T11:51:20;-5.15;90.24
65207;SHT31;58477;48.072;11.970;2022-12-18T11:53:48;-4.97;89.90
65207;SHT31;58477;48.072;11.970;2022-12-18T11:56:33;-4.46;90.34
65207;SHT31;58477;48.072;11.970;2022-12-18T12:01:54;-4.28;88.62
65207;SHT31;58477;48.072;11.970;2022-12-18T12:18:06;-4.69;89.78
65207;SHT31;58477;48.072;11.970;2022-12-18T12:20:50;-5.14;89.88
65207;SHT31;58477;48.072;11.970;2022-12-18T12:26:06;-5.51;93.23
65207;SHT31;58477;48.072;11.970;2022-12-18T12:34:05;-5.03;90.35
65207;SHT31;58477;48.072;11.970;2022-12-18T12:39:44;-5.12;90.42
65207;SHT31;58477;48.072;11.970;2022-12-18T12:42:31;-5.20;91.04
65207;SHT31;58477;48.072;11.970;2022-12-18T12:45:22;-5.55;92.35
65207;SHT31;58477;48.072;11.970;2022-12-18T12:47:49;-5.58;93.45
65207;SHT31;58477;48.072;11.970;2022-12-18T12:50:18;-5.58;92.43
65207;SHT31;58477;48.072;11.970;2022-12-18T12:52:47;-5.61;93.33
65207;SHT31;58477;48.072;11.970;2022-12-18T12:55:22;-5.55;93.32
65207;SHT31;58477;48.072;11.970;2022-12-18T13:00:49;-5.32;92.29
65207;SHT31;58477;48.072;11.970;2022-12-18T13:06:00;-5.30;91.36
65207;SHT31;58477;48.072;11.970;2022-12-18T13:08:30;-5.18;91.43
65207;SHT31;58477;48.072;11.970;2022-12-18T13:10:58;-5.07;92.08
65207;SHT31;58477;48.072;11.970;2022-12-18T13:13:54;-4.93;92.38
65207;SHT31;58477;48.072;11.970;2022-12-18T13:16:24;-5.01;90.62
65207;SHT31;58477;48.072;11.970;2022-12-18T13:18:55;-4.77;90.74
65207;SHT31;58477;48.072;11.970;2022-12-18T13:21:29;-5.00;91.98
65207;SHT31;58477;48.072;11.970;2022-12-18T13:23:56;-4.88;90.64
65207;SHT31;58477;48.072;11.970;2022-12-18T13:34:20;-5.01;92.67
65207;SHT31;58477;48.072;11.970;2022-12-18T13:36:46;-4.88;91.08
65207;SHT31;58477;48.072;11.970;2022-12-18T13:41:49;-4.86;90.91
65207;SHT31;58477;48.072;11.970;2022-12-18T13:44:38;-5.32;92.24
65207;SHT31;58477;48.072;11.970;2022-12-18T13:47:26;-5.28;91.98
65207;SHT31;58477;48.072;11.970;2022-12-18T13:49:54;-5.38;92.77
65207;SHT31;58477;48.072;11.970;2022-12-18T13:52:35;-5.34;91.81
65207;SHT31;58477;48.072;11.970;2022-12-18T13:55:02;-5.24;92.39
65207;SHT31;58477;48.072;11.970;2022-12-18T13:57:32;-5.43;92.91
65207;SHT31;58477;48.072;11.970;2022-12-18T13:59:59;-5.38;93.11
65207;SHT31;58477;48.072;11.970;2022-12-18T14:02:44;-5.11;92.53
65207;SHT31;58477;48.072;11.970;2022-12-18T14:05:22;-5.47;92.03
65207;SHT31;58477;48.072;11.970;2022-12-18T14:07:48;-5.39;92.58
65207;SHT31;58477;48.072;11.970;2022-12-18T14:10:15;-5.58;92.28
65207;SHT31;58477;48.072;11.970;2022-12-18T14:12:45;-5.69;92.95
65207;SHT31;58477;48.072;11.970;2022-12-18T14:15:32;-5.76;93.57
65207;SHT31;58477;48.072;11.970;2022-12-18T14:20:41;-5.93;94.55
65207;SHT31;58477;48.072;11.970;2022-12-18T14:25:50;-6.26;94.61
65207;SHT31;58477;48.072;11.970;2022-12-18T14:28:16;-5.97;94.21
65207;SHT31;58477;48.072;11.970;2022-12-18T14:30:44;-5.92;94.10
65207;SHT31;58477;48.072;11.970;2022-12-18T14:33:16;-5.68;93.28
65207;SHT31;58477;48.072;11.970;2022-12-18T14:38:29;-5.71;93.03
65207;SHT31;58477;48.072;11.970;2022-12-18T14:41:09;-5.58;92.37
65207;SHT31;58477;48.072;11.970;2022-12-18T14:43:37;-5.81;92.95
65207;SHT31;58477;48.072;11.970;2022-12-18T14:46:27;-5.85;93.38
65207;SHT31;58477;48.072;11.970;2022-12-18T14:48:53;-5.73;93.50
65207;SHT31;58477;48.072;11.970;2022-12-18T14:51:21;-5.83;93.32
65207;SHT31;58477;48.072;11.970;2022-12-18T14:56:20;-5.92;93.76
65207;SHT31;58477;48.072;11.970;2022-12-18T14:58:48;-6.09;94.05
65207;SHT31;58477;48.072;11.970;2022-12-18T15:01:24;-6.13;94.27
65207;SHT31;58477;48.072;11.970;2022-12-18T15:03:51;-6.23;94.89
65207;SHT31;58477;48.072;11.970;2022-12-18T15:08:49;-6.36;94.28
65207;SHT31;58477;48.072;11.970;2022-12-18T15:11:28;-6.30;94.69
65207;SHT31;58477;48.072;11.970;2022-12-18T15:13:54;-6.13;94.64
65207;SHT31;58477;48.072;11.970;2022-12-18T15:16:20;-6.13;94.40
65207;SHT31;58477;48.072;11.970;2022-12-18T15:18:45;-6.18;94.05
65207;SHT31;58477;48.072;11.970;2022-12-18T15:21:18;-6.02;94.27
65207;SHT31;58477;48.072;11.970;2022-12-18T15:26:11;-6.20;94.66
65207;SHT31;58477;48.072;11.970;2022-12-18T15:28:48;-6.24;94.52
65207;SHT31;58477;48.072;11.970;2022-12-18T15:36:17;-6.05;94.47
65207;SHT31;58477;48.072;11.970;2022-12-18T15:38:53;-6.09;94.41
65207;SHT31;58477;48.072;11.970;2022-12-18T15:41:20;-6.31;94.99
65207;SHT31;58477;48.072;11.970;2022-12-18T15:43:49;-6.17;95.15
65207;SHT31;58477;48.072;11.970;2022-12-18T15:46:16;-6.09;94.51
65207;SHT31;58477;48.072;11.970;2022-12-18T15:48:49;-6.02;93.91
65207;SHT31;58477;48.072;11.970;2022-12-18T15:51:18;-6.24;94.58
65207;SHT31;58477;48.072;11.970;2022-12-18T15:53:46;-6.17;94.57
65207;SHT31;58477;48.072;11.970;2022-12-18T15:56:13;-6.21;94.75
65207;SHT31;58477;48.072;11.970;2022-12-18T15:58:57;-6.16;95.04
65207;SHT31;58477;48.072;11.970;2022-12-18T16:01:26;-6.17;94.73
65207;SHT31;58477;48.072;11.970;2022-12-18T16:03:51;-5.99;94.72
65207;SHT31;58477;48.072;11.970;2022-12-18T16:06:17;-6.06;94.07
65207;SHT31;58477;48.072;11.970;2022-12-18T16:08:42;-5.92;94.39
65207;SHT31;58477;48.072;11.970;2022-12-18T16:11:23;-5.92;94.02
65207;SHT31;58477;48.072;11.970;2022-12-18T16:14:21;-5.99;94.08
65207;SHT31;58477;48.072;11.970;2022-12-18T16:16:49;-6.06;94.92
65207;SHT31;58477;48.072;11.970;2022-12-18T16:19:15;-6.02;94.17
65207;SHT31;58477;48.072;11.970;2022-12-18T16:21:42;-5.90;93.68
65207;SHT31;58477;48.072;11.970;2022-12-18T16:24:28;-6.00;93.92
65207;SHT31;58477;48.072;11.970;2022-12-18T16:26:56;-6.07;93.89
65207;SHT31;58477;48.072;11.970;2022-12-18T16:29:21;-6.05;94.29
65207;SHT31;58477;48.072;11.970;2022-12-18T16:31:55;-5.86;93.65
65207;SHT31;58477;48.072;11.970;2022-12-18T16:34:31;-5.81;93.23
65207;SHT31;58477;48.072;11.970;2022-12-18T16:37:04;-5.69;93.07
65207;SHT31;58477;48.072;11.970;2022-12-18T16:39:30;-6.11;93.70
65207;SHT31;58477;48.072;11.970;2022-12-18T16:41:57;-6.27;94.58
65207;SHT31;58477;48.072;11.970;2022-12-18T16:44:22;-6.07;94.49
65207;SHT31;58477;48.072;11.970;2022-12-18T16:46:48;-5.96;94.11
65207;SHT31;58477;48.072;11.970;2022-12-18T16:49:15;-5.85;93.57
65207;SHT31;58477;48.072;11.970;2022-12-18T16:51:41;-6.23;94.25
65207;SHT31;58477;48.072;11.970;2022-12-18T16:54:07;-6.27;94.71
65207;SHT31;58477;48.072;11.970;2022-12-18T16:56:32;-6.52;94.92
65207;SHT31;58477;48.072;11.970;2022-12-18T16:58:59;-6.50;95.13
65207;SHT31;58477;48.072;11.970;2022-12-18T17:01:27;-6.38;95.08
65207;SHT31;58477;48.072;11.970;2022-12-18T17:04:02;-6.61;94.84
65207;SHT31;58477;48.072;11.970;2022-12-18T17:06:29;-6.47;95.74
65207;SHT31;58477;48.072;11.970;2022-12-18T17:08:56;-6.68;95.88
65207;SHT31;58477;48.072;11.970;2022-12-18T17:11:23;-6.47;95.62
65207;SHT31;58477;48.072;11.970;2022-12-18T17:13:49;-6.45;95.17
65207;SHT31;58477;48.072;11.970;2022-12-18T17:16:14;-6.62;95.18
65207;SHT31;58477;48.072;11.970;2022-12-18T17:18:41;-6.72;95.80
65207;SHT31;58477;48.072;11.970;2022-12-18T17:21:08;-6.68;95.83